IRWIN_GUIDES_SCARP _RIDGE
Hourly Weather Roundup
IRWIN_GUIDES_SCARP _RIDGE 12/16/2017
Click Here for Graph!
Data is provided by Irwin Guides.
All Data is Provisional.
        DATE  TIME Temp F   RH% Wind Spd Wind Dir Max Gust       BATT
                                                                      
                       AVG   AVG      AVG      AVG      MAX        AVG

   4/10/2017 10:00      20    26        3      201       11      14.21
   4/10/2017 09:00      17    29        2      100        7      14.28
   4/10/2017 08:00      13    32        6      320       19      13.01
   4/10/2017 07:00      12    30       13      285       25      12.63
   4/10/2017 06:00      12    30       10      268       21      12.63
   4/10/2017 05:00      12    33       13      266       26      12.65
   4/10/2017 04:00      12    40       14      268       25      12.67
   4/10/2017 03:00      11    43       14      276       23      12.68
   4/10/2017 02:00      11    49       14      277       23      12.70
   4/10/2017 01:00      11    52       14      270       30      12.73
    4/9/2017 24:00      12    50       19      256       34      12.77
    4/9/2017 23:00      12    50       27      254       42      12.80
    4/9/2017 22:00      13    48       31      250       60      12.84
    4/9/2017 21:00      13    46       27      252       46      12.89
    4/9/2017 20:00      15    44       23      251       43      13.69
    4/9/2017 19:00      17    42       19      248       39      14.27
    4/9/2017 18:00      17    42       22      259       37      14.25
    4/9/2017 17:00      17    41       24      260       50      14.25
    4/9/2017 16:00      16    42       25      260       47      14.25
    4/9/2017 15:00      16    46       23      255       43      14.25
    4/9/2017 14:00      15    54       23      258       37      14.25
    4/9/2017 13:00      14    61       26      255       41      14.29
    4/9/2017 12:00      12    70       27      249       48      14.29
    4/9/2017 11:00      11    81       24      248       45      14.32


Click Here for Graph!